Time;durP1;ratioP1;P1;durP2;ratioP2;P2;SDS_P1;SDS_P2;PMS_P1;PMS_P2;Temp;Humidity;BMP_temperature;BMP_pressure;BME280_temperature;BME280_humidity;BME280_pressure;Samples;Min_cycle;Max_cycle;Signal;HPM_P1;HPM_P2
2022/04/26 03:38:23;;;;;;;24.45;12.77;;;;;;;;;;8297690;28;20489;-84
2022/04/26 03:42:27;;;;;;;26.10;13.05;;;;;;;;;;8297732;28;20061;-83
2022/04/26 03:46:30;;;;;;;30.00;14.32;;;;;;;;;;8297559;28;20132;-83
2022/04/26 03:50:32;;;;;;;29.20;12.98;;;;;;;;;;8298041;28;20050;-83
2022/04/26 03:54:35;;;;;;;31.38;14.73;;;;;;;;;;8297386;28;20053;-84
2022/04/26 03:58:39;;;;;;;34.72;16.20;;;;;;;;;;8297398;28;20505;-82
2022/04/26 04:02:42;;;;;;;37.35;18.20;;;;;;;;;;8297314;28;20418;-82
2022/04/26 04:06:44;;;;;;;38.55;18.00;;;;;;;;;;8297194;28;20078;-82
2022/04/26 04:10:47;;;;;;;36.28;18.23;;;;;;;;;;8298486;28;20050;-82
2022/04/26 04:14:51;;;;;;;36.20;17.65;;;;;;;;;;8299516;28;20099;-83
2022/04/26 04:23:13;;;;;;;34.88;17.27;;;;;;;;;;8298510;28;20712;-82
2022/04/26 04:27:15;;;;;;;36.85;17.02;;;;;;;;;;8303247;28;20525;-82
2022/04/26 04:31:19;;;;;;;38.25;19.58;;;;;;;;;;8302607;28;20041;-85
2022/04/26 04:35:22;;;;;;;39.92;19.40;;;;;;;;;;8302975;28;20052;-83
2022/04/26 04:39:27;;;;;;;51.53;20.20;;;;;;;;;;8302364;28;20050;-82
2022/04/26 04:43:29;;;;;;;44.03;20.35;;;;;;;;;;8302252;28;20050;-84
2022/04/26 04:47:33;;;;;;;42.20;17.65;;;;;;;;;;8302073;28;20108;-83
2022/04/26 04:51:36;;;;;;;38.92;19.05;;;;;;;;;;8302023;28;20516;-83
2022/04/26 04:55:40;;;;;;;37.95;18.52;;;;;;;;;;8301913;28;20046;-83
2022/04/26 04:59:42;;;;;;;36.83;18.77;;;;;;;;;;8301808;28;20053;-83
2022/04/26 05:03:47;;;;;;;36.95;18.70;;;;;;;;;;8302108;28;20406;-84
2022/04/26 05:07:50;;;;;;;40.65;19.80;;;;;;;;;;8301400;28;20054;-82
2022/04/26 05:11:52;;;;;;;46.67;21.90;;;;;;;;;;8301237;28;20050;-82
2022/04/26 05:15:55;;;;;;;51.00;22.52;;;;;;;;;;8300608;28;20049;-84
2022/04/26 05:20:00;;;;;;;46.15;20.17;;;;;;;;;;8301046;28;20053;-82
2022/04/26 05:28:23;;;;;;;49.65;19.88;;;;;;;;;;8294722;28;20053;-85
2022/04/26 05:32:27;;;;;;;49.65;24.05;;;;;;;;;;8300856;28;20049;-83
2022/04/26 05:36:31;;;;;;;39.20;19.58;;;;;;;;;;8300572;28;20498;-85
2022/04/26 05:40:35;;;;;;;56.33;24.50;;;;;;;;;;8262402;28;20050;-87
2022/04/26 05:44:39;;;;;;;47.90;21.77;;;;;;;;;;8300930;28;20474;-86
2022/04/26 05:48:43;;;;;;;54.78;24.75;;;;;;;;;;8300223;28;20046;-86
2022/04/26 05:52:53;;;;;;;50.15;23.05;;;;;;;;;;8300311;28;20046;-86
2022/04/26 05:56:58;;;;;;;62.67;26.02;;;;;;;;;;8300137;28;20050;-86
2022/04/26 06:01:04;;;;;;;64.40;25.77;;;;;;;;;;8299732;28;20041;-86
2022/04/26 06:05:10;;;;;;;61.70;24.45;;;;;;;;;;8299718;28;20054;-87
2022/04/26 06:09:19;;;;;;;53.88;24.23;;;;;;;;;;8299449;28;20041;-87
2022/04/26 06:13:27;;;;;;;62.72;25.90;;;;;;;;;;8302973;28;20061;-85
2022/04/26 06:17:32;;;;;;;52.92;22.15;;;;;;;;;;8298955;28;20540;-85
2022/04/26 06:21:38;;;;;;;46.08;22.20;;;;;;;;;;8295630;28;20046;-84
2022/04/26 06:25:48;;;;;;;45.55;20.83;;;;;;;;;;8298255;28;20050;-85
2022/04/26 06:29:55;;;;;;;55.42;24.40;;;;;;;;;;8298165;28;20482;-84
2022/04/26 06:34:00;;;;;;;50.47;23.23;;;;;;;;;;8297954;28;20119;-86
2022/04/26 06:38:07;;;;;;;52.33;23.00;;;;;;;;;;8293739;28;20038;-85
2022/04/26 06:42:13;;;;;;;51.63;23.40;;;;;;;;;;8298645;28;20132;-84
2022/04/26 06:46:28;;;;;;;46.30;22.42;;;;;;;;;;8297994;28;20057;-85
2022/04/26 06:50:33;;;;;;;39.33;19.73;;;;;;;;;;8293272;28;20478;-85
2022/04/26 06:54:37;;;;;;;44.72;21.55;;;;;;;;;;8296822;28;20050;-86
2022/04/26 06:58:43;;;;;;;38.75;19.00;;;;;;;;;;8298512;28;20571;-85
2022/04/26 07:02:47;;;;;;;35.35;18.48;;;;;;;;;;8295402;28;20140;-86
2022/04/26 07:06:50;;;;;;;33.47;17.05;;;;;;;;;;8297599;28;20402;-87
2022/04/26 07:10:55;;;;;;;33.65;17.17;;;;;;;;;;8295532;28;20066;-86
2022/04/26 07:15:01;;;;;;;32.95;17.25;;;;;;;;;;8293156;28;20042;-86
2022/04/26 07:19:05;;;;;;;35.35;16.38;;;;;;;;;;8294533;28;20069;-85
2022/04/26 07:23:09;;;;;;;36.50;19.15;;;;;;;;;;8295254;28;20046;-86
2022/04/26 07:27:16;;;;;;;32.92;17.20;;;;;;;;;;8297756;28;20088;-86
2022/04/26 07:31:21;;;;;;;30.42;16.48;;;;;;;;;;8297352;28;20046;-86
2022/04/26 07:35:25;;;;;;;29.45;14.68;;;;;;;;;;8298098;28;20547;-86
2022/04/26 07:39:30;;;;;;;29.05;14.70;;;;;;;;;;8294415;28;20060;-86
2022/04/26 07:43:33;;;;;;;23.42;13.23;;;;;;;;;;8297244;28;20041;-86
2022/04/26 07:47:44;;;;;;;21.20;11.85;;;;;;;;;;8295717;28;20046;-86
2022/04/26 07:51:52;;;;;;;26.75;11.65;;;;;;;;;;8295938;28;20137;-86
2022/04/26 07:55:58;;;;;;;20.08;11.23;;;;;;;;;;8279814;28;20085;-86
2022/04/26 08:00:05;;;;;;;19.48;11.48;;;;;;;;;;8300014;28;20052;-86
2022/04/26 08:04:10;;;;;;;18.30;10.32;;;;;;;;;;8271131;28;20066;-85
2022/04/26 08:08:14;;;;;;;18.85;10.48;;;;;;;;;;8285120;28;20466;-84
2022/04/26 08:12:17;;;;;;;18.13;10.82;;;;;;;;;;8302786;28;20054;-83
2022/04/26 08:16:20;;;;;;;20.35;10.93;;;;;;;;;;8302825;28;20089;-83
2022/04/26 08:20:26;;;;;;;20.38;9.93;;;;;;;;;;8303037;28;20049;-83
2022/04/26 08:28:48;;;;;;;16.42;9.30;;;;;;;;;;8302878;28;20046;-82
2022/04/26 08:32:51;;;;;;;16.90;9.48;;;;;;;;;;8303052;28;20041;-82
2022/04/26 08:36:55;;;;;;;17.42;9.57;;;;;;;;;;8302648;28;20548;-82
2022/04/26 08:40:59;;;;;;;16.13;8.85;;;;;;;;;;8302468;28;20521;-84
2022/04/26 08:45:02;;;;;;;13.98;8.13;;;;;;;;;;8302243;28;20050;-82
2022/04/26 08:53:28;;;;;;;14.30;7.93;;;;;;;;;;8302068;28;20053;-83
2022/04/26 08:57:31;;;;;;;12.73;7.97;;;;;;;;;;8301905;28;20054;-84
2022/04/26 09:01:34;;;;;;;13.18;7.40;;;;;;;;;;8301892;28;20524;-83
2022/04/26 09:05:38;;;;;;;19.88;11.80;;;;;;;;;;8301970;28;20053;-84
2022/04/26 09:09:42;;;;;;;51.33;26.02;;;;;;;;;;8301247;28;20481;-84
2022/04/26 09:13:45;;;;;;;15.30;8.27;;;;;;;;;;8301239;28;20046;-83
2022/04/26 09:17:48;;;;;;;12.52;7.47;;;;;;;;;;8301704;28;20457;-83
2022/04/26 09:21:56;;;;;;;14.50;7.85;;;;;;;;;;8301154;28;20132;-83
2022/04/26 09:26:08;;;;;;;12.63;7.72;;;;;;;;;;8301441;28;20050;-83
2022/04/26 09:30:13;;;;;;;13.30;8.00;;;;;;;;;;8300967;28;20042;-82
2022/04/26 09:34:17;;;;;;;13.27;6.90;;;;;;;;;;8300847;28;20050;-83
2022/04/26 09:38:24;;;;;;;11.70;7.07;;;;;;;;;;8300684;28;20046;-82
2022/04/26 09:42:32;;;;;;;19.30;11.73;;;;;;;;;;8300609;28;20046;-82
2022/04/26 09:46:48;;;;;;;10.45;5.95;;;;;;;;;;8300755;28;20054;-83
2022/04/26 09:50:51;;;;;;;13.27;8.15;;;;;;;;;;8300231;28;20108;-83
2022/04/26 09:54:54;;;;;;;15.43;9.27;;;;;;;;;;8300625;28;20533;-81
2022/04/26 09:59:00;;;;;;;11.05;6.70;;;;;;;;;;8299891;28;20120;-83
2022/04/26 10:03:09;;;;;;;10.45;7.05;;;;;;;;;;8299818;28;20074;-83
2022/04/26 10:07:15;;;;;;;11.20;6.13;;;;;;;;;;8300177;28;20469;-80
2022/04/26 10:11:18;;;;;;;7.22;4.60;;;;;;;;;;8289619;28;20069;-80
2022/04/26 10:15:24;;;;;;;7.70;4.50;;;;;;;;;;8284404;28;20057;-82
2022/04/26 10:19:39;;;;;;;7.68;4.43;;;;;;;;;;8299187;28;20092;-81
2022/04/26 10:24:15;;;;;;;6.95;4.32;;;;;;;;;;8298111;28;20053;-82
2022/04/26 10:28:26;;;;;;;5.97;3.80;;;;;;;;;;8298710;28;20050;-82
2022/04/26 10:32:34;;;;;;;6.20;4.00;;;;;;;;;;8297239;28;20053;-82
2022/04/26 10:36:39;;;;;;;6.78;3.70;;;;;;;;;;8298945;28;20124;-81
2022/04/26 10:41:19;;;;;;;7.28;4.60;;;;;;;;;;8285870;28;20049;-81
2022/04/26 10:45:28;;;;;;;6.47;3.78;;;;;;;;;;8297153;28;20570;-82
2022/04/26 10:49:47;;;;;;;5.90;3.63;;;;;;;;;;8298868;28;20049;-83
2022/04/26 10:53:54;;;;;;;6.03;3.88;;;;;;;;;;8298466;28;20049;-82
2022/04/26 10:58:02;;;;;;;7.47;3.95;;;;;;;;;;8289745;28;20409;-82
2022/04/26 11:02:07;;;;;;;8.23;4.22;;;;;;;;;;8297849;28;20034;-81
2022/04/26 11:06:13;;;;;;;10.55;5.38;;;;;;;;;;8296921;28;20054;-82
2022/04/26 11:10:23;;;;;;;6.93;4.15;;;;;;;;;;8298107;28;20049;-83
2022/04/26 11:14:28;;;;;;;3.50;2.17;;;;;;;;;;8301338;28;20498;-82
2022/04/26 11:18:40;;;;;;;5.95;3.22;;;;;;;;;;8298457;28;20489;-82
2022/04/26 11:22:50;;;;;;;4.90;3.17;;;;;;;;;;8295634;28;20173;-81
2022/04/26 11:31:16;;;;;;;5.13;2.80;;;;;;;;;;8297380;28;20482;-81
2022/04/26 11:35:21;;;;;;;5.78;4.25;;;;;;;;;;8304167;28;20046;-82
2022/04/26 11:39:26;;;;;;;9.48;3.20;;;;;;;;;;8304379;28;20050;-82
2022/04/26 11:43:33;;;;;;;8.38;4.50;;;;;;;;;;8303827;28;20053;-81
2022/04/26 11:47:43;;;;;;;4.85;3.03;;;;;;;;;;8302306;28;20104;-80
2022/04/26 11:52:01;;;;;;;16.48;9.10;;;;;;;;;;8297090;28;20136;-81
2022/04/26 11:56:07;;;;;;;4.93;2.85;;;;;;;;;;8298456;28;20085;-82
2022/04/26 12:00:14;;;;;;;7.03;3.47;;;;;;;;;;8298868;28;20049;-81
2022/04/26 12:04:26;;;;;;;7.18;3.90;;;;;;;;;;8298170;28;20062;-82
2022/04/26 12:08:46;;;;;;;25.40;12.20;;;;;;;;;;8298329;28;20103;-81
2022/04/26 12:13:07;;;;;;;10.27;6.45;;;;;;;;;;8298241;28;20433;-81
2022/04/26 12:17:22;;;;;;;8.93;4.88;;;;;;;;;;8298037;28;20115;-81
2022/04/26 12:21:47;;;;;;;5.22;3.38;;;;;;;;;;8297799;28;20055;-82
2022/04/26 12:26:05;;;;;;;6.38;3.65;;;;;;;;;;8288191;28;20134;-82
2022/04/26 12:30:15;;;;;;;7.60;4.15;;;;;;;;;;8297828;28;20052;-81
2022/04/26 12:34:26;;;;;;;7.38;3.83;;;;;;;;;;8285646;28;20046;-81
2022/04/26 12:38:51;;;;;;;6.97;4.20;;;;;;;;;;8291499;28;20485;-81
2022/04/26 12:43:35;;;;;;;7.97;3.92;;;;;;;;;;8278884;28;20340;-82
2022/04/26 12:52:47;;;;;;;6.30;3.58;;;;;;;;;;8291559;28;20050;-82
2022/04/26 12:57:03;;;;;;;5.43;2.78;;;;;;;;;;8282074;28;20144;-81
2022/04/26 13:01:25;;;;;;;3.92;2.55;;;;;;;;;;8296965;28;20096;-81
2022/04/26 13:05:41;;;;;;;6.85;3.08;;;;;;;;;;8291470;28;20050;-82
2022/04/26 13:09:53;;;;;;;8.18;4.68;;;;;;;;;;8294487;28;20050;-81
2022/04/26 13:14:12;;;;;;;8.75;4.47;;;;;;;;;;8294166;28;20062;-81
2022/04/26 13:18:40;;;;;;;8.25;4.65;;;;;;;;;;8264022;28;20042;-83
2022/04/26 13:27:42;;;;;;;7.90;4.57;;;;;;;;;;8296248;28;20054;-83
2022/04/26 13:31:47;;;;;;;9.27;5.05;;;;;;;;;;8285816;28;20128;-83
2022/04/26 13:35:58;;;;;;;7.85;4.60;;;;;;;;;;8280934;28;20106;-83
2022/04/26 13:40:06;;;;;;;10.03;5.53;;;;;;;;;;8295645;28;20077;-82
2022/04/26 13:44:12;;;;;;;9.63;5.80;;;;;;;;;;8267033;28;20502;-82
2022/04/26 13:48:17;;;;;;;12.80;6.40;;;;;;;;;;8298613;28;20050;-81
2022/04/26 13:52:25;;;;;;;12.45;6.35;;;;;;;;;;8298927;28;20414;-82
2022/04/26 13:56:44;;;;;;;13.73;6.95;;;;;;;;;;8298952;28;20100;-82
2022/04/26 14:01:14;;;;;;;16.02;7.15;;;;;;;;;;8293708;28;20042;-82
2022/04/26 14:05:33;;;;;;;41.75;15.30;;;;;;;;;;8290627;28;20045;-82
2022/04/26 14:09:49;;;;;;;19.38;7.90;;;;;;;;;;8294886;28;20070;-83
2022/04/26 14:24:07;;;;;;;13.48;7.25;;;;;;;;;;8297636;28;20045;-82
2022/04/26 14:28:48;;;;;;;10.23;5.97;;;;;;;;;;8296889;28;20042;-83
2022/04/26 14:38:49;;;;;;;10.95;5.85;;;;;;;;;;8292834;28;20409;-81
2022/04/26 14:43:04;;;;;;;12.02;7.60;;;;;;;;;;8288948;28;20549;-80
2022/04/26 14:47:15;;;;;;;15.45;9.13;;;;;;;;;;8292365;28;20054;-82
2022/04/26 14:51:33;;;;;;;12.70;6.82;;;;;;;;;;8270933;28;20050;-81
2022/04/26 14:55:38;;;;;;;14.30;7.75;;;;;;;;;;8290760;28;20497;-81
2022/04/26 14:59:46;;;;;;;14.77;7.10;;;;;;;;;;8299116;28;20291;-81
2022/04/26 15:03:58;;;;;;;14.40;7.32;;;;;;;;;;8297309;28;20084;-82
2022/04/26 15:17:52;;;;;;;13.55;8.48;;;;;;;;;;8279409;28;20050;-77
2022/04/26 15:22:19;;;;;;;15.10;8.60;;;;;;;;;;8296745;28;20076;-77
2022/04/26 15:26:59;;;;;;;13.98;7.70;;;;;;;;;;8296248;28;20056;-77
2022/04/26 15:31:31;;;;;;;13.07;7.80;;;;;;;;;;8281511;28;20069;-77
2022/04/26 15:35:39;;;;;;;11.40;6.65;;;;;;;;;;8292767;28;20042;-76
2022/04/26 15:39:47;;;;;;;25.80;16.73;;;;;;;;;;8296255;28;20034;-74
2022/04/26 15:43:53;;;;;;;17.02;9.93;;;;;;;;;;8296296;28;20107;-77
2022/04/26 15:48:00;;;;;;;13.75;7.55;;;;;;;;;;8292532;28;20038;-76
2022/04/26 15:52:07;;;;;;;18.20;11.18;;;;;;;;;;8293610;28;20050;-77
2022/04/26 15:56:24;;;;;;;17.25;9.48;;;;;;;;;;8288620;28;20054;-78
2022/04/26 16:00:35;;;;;;;13.15;7.70;;;;;;;;;;8264359;28;20050;-78
2022/04/26 16:04:49;;;;;;;14.88;8.43;;;;;;;;;;8253836;28;20053;-76
2022/04/26 16:20:28;;;;;;;67.18;25.98;;;;;;;;;;8296990;28;20387;-77
2022/04/26 16:22:29;;;;;;;25.52;12.75;;;;;;;;;;8301653;28;20045;-77
2022/04/26 16:27:05;;;;;;;18.98;10.27;;;;;;;;;;8302610;28;20048;-76
2022/04/26 16:31:14;;;;;;;19.15;8.75;;;;;;;;;;8299656;28;20124;-78
2022/04/26 16:35:24;;;;;;;15.50;9.60;;;;;;;;;;8300341;28;20508;-79
2022/04/26 16:39:57;;;;;;;19.90;10.63;;;;;;;;;;8302164;28;20050;-77
2022/04/26 16:44:40;;;;;;;19.67;10.45;;;;;;;;;;8301978;28;20480;-77
2022/04/26 16:54:25;;;;;;;14.48;8.32;;;;;;;;;;8302154;28;20050;-78
2022/04/26 17:04:13;;;;;;;22.65;11.95;;;;;;;;;;8301178;28;20053;-79
2022/04/26 17:13:50;;;;;;;21.75;12.10;;;;;;;;;;8298841;28;20053;-78
2022/04/26 17:18:06;;;;;;;20.55;11.50;;;;;;;;;;8301373;28;20061;-77
2022/04/26 17:22:35;;;;;;;19.00;11.17;;;;;;;;;;8300685;28;20049;-79
2022/04/26 17:26:56;;;;;;;45.47;26.95;;;;;;;;;;8300993;28;20301;-77
2022/04/26 17:31:14;;;;;;;47.13;27.05;;;;;;;;;;8300313;28;20410;-78
2022/04/26 17:35:26;;;;;;;43.53;24.10;;;;;;;;;;8300728;28;20087;-77
2022/04/26 17:39:39;;;;;;;30.35;19.17;;;;;;;;;;8300527;28;20077;-78
2022/04/26 17:44:33;;;;;;;34.05;21.27;;;;;;;;;;8300400;28;20046;-77
2022/04/26 17:48:57;;;;;;;20.30;10.52;;;;;;;;;;8281355;28;20114;-78
2022/04/26 17:58:01;;;;;;;15.82;8.80;;;;;;;;;;8280237;28;20049;-78
2022/04/26 18:07:47;;;;;;;45.38;25.60;;;;;;;;;;8283321;28;20069;-78
2022/04/26 18:12:02;;;;;;;26.75;12.40;;;;;;;;;;8299136;28;20133;-79
2022/04/26 18:16:59;;;;;;;15.75;9.40;;;;;;;;;;8207966;28;20426;-78
2022/04/26 18:21:26;;;;;;;20.42;10.02;;;;;;;;;;8231945;28;20495;-78
2022/04/26 18:29:52;;;;;;;20.60;12.02;;;;;;;;;;8219910;28;20109;-77
2022/04/26 18:34:03;;;;;;;23.02;12.25;;;;;;;;;;8229592;28;20050;-77
2022/04/26 18:38:09;;;;;;;17.73;9.75;;;;;;;;;;8224121;28;20046;-76
2022/04/26 18:42:14;;;;;;;17.33;9.73;;;;;;;;;;8222626;28;20463;-76
2022/04/26 18:46:19;;;;;;;15.00;9.20;;;;;;;;;;8228152;28;20057;-77
2022/04/26 18:50:26;;;;;;;17.85;8.52;;;;;;;;;;8233020;28;20125;-78
2022/04/26 18:54:33;;;;;;;15.02;8.80;;;;;;;;;;8230937;28;20051;-77
2022/04/26 18:58:43;;;;;;;18.88;11.60;;;;;;;;;;8227917;28;20723;-76
2022/04/26 19:02:50;;;;;;;21.00;12.15;;;;;;;;;;8225677;28;20062;-77
2022/04/26 19:07:01;;;;;;;17.70;9.85;;;;;;;;;;8224799;28;20054;-76
2022/04/26 19:15:29;;;;;;;17.50;9.35;;;;;;;;;;8282305;28;20149;-79
2022/04/26 19:19:34;;;;;;;15.93;9.40;;;;;;;;;;8293946;28;20046;-76
2022/04/26 19:23:41;;;;;;;23.90;13.75;;;;;;;;;;8293072;28;20042;-77
2022/04/26 19:27:49;;;;;;;21.55;12.27;;;;;;;;;;8291001;28;20133;-77
2022/04/26 19:31:56;;;;;;;23.77;13.27;;;;;;;;;;8288042;28;20053;-76
2022/04/26 19:36:02;;;;;;;21.20;12.13;;;;;;;;;;8296580;28;20065;-77
2022/04/26 19:40:10;;;;;;;19.83;11.73;;;;;;;;;;8296834;28;20046;-78
2022/04/26 19:44:14;;;;;;;16.13;10.23;;;;;;;;;;8297603;28;20123;-77
2022/04/26 19:48:17;;;;;;;17.65;10.25;;;;;;;;;;8297449;28;20091;-77
2022/04/26 19:52:23;;;;;;;38.72;21.50;;;;;;;;;;8297412;28;20064;-77
2022/04/26 19:56:30;;;;;;;43.25;23.15;;;;;;;;;;8304100;28;20551;-77
2022/04/26 20:00:33;;;;;;;16.02;9.30;;;;;;;;;;8303800;28;20049;-78
2022/04/26 20:04:37;;;;;;;13.35;8.02;;;;;;;;;;8303502;28;20073;-78
2022/04/26 20:08:41;;;;;;;26.92;14.00;;;;;;;;;;8303315;28;20054;-78
2022/04/26 20:12:46;;;;;;;50.83;28.65;;;;;;;;;;8303155;28;20049;-78
2022/04/26 20:16:50;;;;;;;45.65;24.98;;;;;;;;;;8303240;28;20395;-78
2022/04/26 20:20:53;;;;;;;34.90;19.92;;;;;;;;;;8303374;28;20054;-77
2022/04/26 20:24:56;;;;;;;48.38;25.48;;;;;;;;;;8303759;28;20078;-77
2022/04/26 20:33:23;;;;;;;34.58;19.00;;;;;;;;;;8304632;28;20052;-77
2022/04/26 20:37:26;;;;;;;45.13;22.92;;;;;;;;;;8303071;28;20474;-76
2022/04/26 20:41:30;;;;;;;29.92;14.52;;;;;;;;;;8302559;28;20490;-77
2022/04/26 20:45:35;;;;;;;18.80;9.85;;;;;;;;;;8302477;28;20056;-76
2022/04/26 20:49:37;;;;;;;18.58;10.90;;;;;;;;;;8302265;28;20042;-77
2022/04/26 20:53:41;;;;;;;24.05;14.65;;;;;;;;;;8302598;28;20050;-77
2022/04/26 20:57:46;;;;;;;28.80;14.48;;;;;;;;;;8301993;28;20140;-76
2022/04/26 21:01:50;;;;;;;34.85;17.38;;;;;;;;;;8302411;28;20050;-77
2022/04/26 21:05:53;;;;;;;37.63;19.17;;;;;;;;;;8301176;28;20050;-77
2022/04/26 21:09:56;;;;;;;20.33;11.15;;;;;;;;;;8301545;28;20099;-77
2022/04/26 21:13:59;;;;;;;23.50;12.57;;;;;;;;;;8301197;28;20494;-76
2022/04/26 21:18:03;;;;;;;34.85;19.40;;;;;;;;;;8301807;28;20050;-76
2022/04/26 21:22:07;;;;;;;65.95;32.70;;;;;;;;;;8302263;28;20046;-77
2022/04/26 21:26:10;;;;;;;32.97;15.07;;;;;;;;;;8300977;28;20050;-77
2022/04/26 21:30:14;;;;;;;29.67;15.10;;;;;;;;;;8300930;28;20049;-76
2022/04/26 21:34:18;;;;;;;19.48;11.38;;;;;;;;;;8301239;28;20145;-76
2022/04/26 21:38:21;;;;;;;26.60;11.23;;;;;;;;;;8301164;28;20490;-77
2022/04/26 21:42:25;;;;;;;20.08;11.35;;;;;;;;;;8300569;28;20064;-78
2022/04/26 21:46:28;;;;;;;26.60;14.90;;;;;;;;;;8289865;28;20045;-76
2022/04/26 21:54:53;;;;;;;28.88;15.38;;;;;;;;;;8289614;28;20508;-76
2022/04/26 21:58:58;;;;;;;18.05;10.75;;;;;;;;;;8294806;28;20049;-79
2022/04/26 22:03:01;;;;;;;19.83;11.80;;;;;;;;;;8299640;28;20128;-78
2022/04/26 22:07:05;;;;;;;26.88;13.52;;;;;;;;;;8300379;28;20470;-78
2022/04/26 22:11:08;;;;;;;35.13;17.42;;;;;;;;;;8299636;28;20077;-76
2022/04/26 22:15:11;;;;;;;31.73;17.55;;;;;;;;;;8299427;28;20181;-76
2022/04/26 22:19:13;;;;;;;24.23;11.85;;;;;;;;;;8294323;28;20383;-78
2022/04/26 22:23:18;;;;;;;20.95;10.98;;;;;;;;;;8298085;28;20045;-79
2022/04/26 22:27:21;;;;;;;18.77;9.75;;;;;;;;;;8297917;28;20095;-77
2022/04/26 22:31:26;;;;;;;17.45;9.60;;;;;;;;;;8297849;28;20049;-77
2022/04/26 22:35:30;;;;;;;24.33;12.25;;;;;;;;;;8295295;28;20054;-78
2022/04/26 22:39:35;;;;;;;21.95;10.98;;;;;;;;;;8297955;28;20101;-78
2022/04/26 22:43:37;;;;;;;23.17;11.60;;;;;;;;;;8298860;28;20069;-79
2022/04/26 22:47:40;;;;;;;21.77;9.35;;;;;;;;;;8299183;28;20112;-78
2022/04/26 22:51:43;;;;;;;20.38;9.77;;;;;;;;;;8298570;28;20092;-78
2022/04/26 22:55:47;;;;;;;18.40;9.75;;;;;;;;;;8299012;28;20506;-77
2022/04/26 22:59:49;;;;;;;17.50;8.93;;;;;;;;;;8298378;28;20076;-77
2022/04/26 23:03:52;;;;;;;18.45;8.98;;;;;;;;;;8298658;28;20060;-77
2022/04/26 23:07:54;;;;;;;18.00;9.02;;;;;;;;;;8298195;28;20105;-76
2022/04/26 23:11:59;;;;;;;18.00;9.35;;;;;;;;;;8298460;28;20049;-77
2022/04/26 23:16:01;;;;;;;17.88;8.48;;;;;;;;;;8297877;28;20049;-78
2022/04/26 23:20:05;;;;;;;17.77;9.07;;;;;;;;;;8297211;28;20473;-77
2022/04/26 23:24:10;;;;;;;22.58;10.25;;;;;;;;;;8298414;28;20046;-77
2022/04/26 23:28:14;;;;;;;23.40;12.27;;;;;;;;;;8300294;28;20053;-77
2022/04/26 23:32:17;;;;;;;18.25;7.82;;;;;;;;;;8308615;28;20046;-77
2022/04/26 23:36:20;;;;;;;17.27;8.85;;;;;;;;;;8308957;28;20075;-77
2022/04/26 23:40:23;;;;;;;22.08;11.18;;;;;;;;;;8308950;28;20049;-77
2022/04/26 23:44:28;;;;;;;16.73;9.40;;;;;;;;;;8308413;28;20050;-77
2022/04/26 23:48:30;;;;;;;19.83;10.77;;;;;;;;;;8309159;28;20429;-77
2022/04/26 23:56:52;;;;;;;21.35;10.25;;;;;;;;;;8308248;28;20045;-77
